Time;durP1;ratioP1;P1;durP2;ratioP2;P2;SDS_P1;SDS_P2;PMS_P1;PMS_P2;Temp;Humidity;BMP_temperature;BMP_pressure;BME280_temperature;BME280_humidity;BME280_pressure;Samples;Min_cycle;Max_cycle;Signal;HPM_P1;HPM_P2
2023/11/11 00:01:24;;;;;;;1.38;0.98;;;6.30;99.90;;;;;;4983267;28;20101;-78
2023/11/11 00:03:50;;;;;;;1.50;0.98;;;6.30;99.90;;;;;;4982935;28;20513;-78
2023/11/11 00:06:16;;;;;;;2.08;1.02;;;6.30;99.90;;;;;;4967321;28;20042;-79
2023/11/11 00:08:41;;;;;;;2.80;1.60;;;6.30;99.90;;;;;;4967231;28;20034;-78
2023/11/11 00:11:07;;;;;;;3.33;1.67;;;6.30;99.90;;;;;;4978523;28;20112;-77
2023/11/11 00:13:32;;;;;;;1.42;0.80;;;6.20;99.90;;;;;;4982521;28;20402;-78
2023/11/11 00:15:59;;;;;;;1.75;0.85;;;6.30;99.90;;;;;;4982348;28;20038;-79
2023/11/11 00:18:25;;;;;;;4.55;1.70;;;6.30;99.90;;;;;;4981933;28;20035;-77
2023/11/11 00:20:51;;;;;;;1.02;0.70;;;6.40;99.90;;;;;;4982508;28;20036;-78
2023/11/11 00:23:16;;;;;;;1.35;0.73;;;6.40;99.90;;;;;;4996442;28;20035;-79
2023/11/11 00:25:43;;;;;;;3.47;0.88;;;6.40;99.90;;;;;;4982896;28;20027;-78
2023/11/11 00:28:10;;;;;;;1.85;0.98;;;6.40;99.90;;;;;;4980032;28;20034;-79
2023/11/11 00:30:35;;;;;;;1.75;0.95;;;6.50;99.90;;;;;;4982367;28;20108;-78
2023/11/11 00:33:01;;;;;;;1.40;0.80;;;6.50;99.90;;;;;;4996802;28;20071;-79
2023/11/11 00:35:27;;;;;;;5.07;1.60;;;6.40;99.90;;;;;;4979571;28;20054;-79
2023/11/11 00:37:53;;;;;;;1.55;1.08;;;6.40;99.90;;;;;;4983307;28;20031;-79
2023/11/11 00:40:19;;;;;;;1.50;0.93;;;6.40;99.90;;;;;;4967403;28;20038;-77
2023/11/11 00:42:44;;;;;;;3.67;1.60;;;6.50;99.90;;;;;;4965996;28;20489;-77
2023/11/11 00:45:10;;;;;;;1.90;0.95;;;6.50;99.90;;;;;;4995301;28;20042;-77
2023/11/11 00:47:36;;;;;;;2.20;1.23;;;6.60;99.90;;;;;;4966031;28;20057;-77
2023/11/11 00:50:03;;;;;;;3.10;1.35;;;6.70;99.90;;;;;;4993588;28;20113;-77
2023/11/11 00:52:28;;;;;;;3.60;1.38;;;6.70;99.90;;;;;;4963652;28;20038;-77
2023/11/11 00:54:54;;;;;;;3.47;1.85;;;6.60;99.90;;;;;;4981026;28;20041;-77
2023/11/11 00:57:20;;;;;;;1.63;0.88;;;6.60;99.90;;;;;;4994169;28;20482;-77
2023/11/11 00:59:46;;;;;;;1.05;0.85;;;6.60;99.90;;;;;;4998692;28;20061;-77
2023/11/11 01:02:11;;;;;;;1.27;0.93;;;6.60;99.90;;;;;;4981730;28;20133;-78
2023/11/11 01:04:37;;;;;;;2.08;1.27;;;6.60;99.90;;;;;;4983161;28;20039;-77
2023/11/11 01:07:02;;;;;;;2.13;0.85;;;6.60;99.90;;;;;;5016880;28;20399;-77
2023/11/11 01:09:28;;;;;;;3.83;1.95;;;6.60;99.90;;;;;;4969299;28;20097;-77
2023/11/11 01:11:54;;;;;;;3.70;2.10;;;6.60;99.90;;;;;;4969900;28;20402;-78
2023/11/11 01:14:22;;;;;;;3.35;1.73;;;6.60;99.90;;;;;;4987410;28;20153;-78
2023/11/11 01:16:48;;;;;;;1.83;1.02;;;6.60;99.90;;;;;;4982246;28;20735;-76
2023/11/11 01:19:13;;;;;;;8.93;3.75;;;6.60;99.90;;;;;;5001441;28;20073;-78
2023/11/11 01:21:39;;;;;;;11.32;6.15;;;6.70;99.90;;;;;;4983562;28;20081;-77
2023/11/11 01:24:05;;;;;;;9.85;6.10;;;6.70;99.90;;;;;;4983881;28;20022;-77
2023/11/11 01:26:31;;;;;;;13.57;7.88;;;6.60;99.90;;;;;;4984603;28;20525;-77
2023/11/11 01:28:56;;;;;;;6.65;4.22;;;6.60;99.90;;;;;;4984673;28;20057;-77
2023/11/11 01:31:23;;;;;;;14.35;7.60;;;6.60;99.90;;;;;;4969509;28;20037;-77
2023/11/11 01:33:49;;;;;;;20.45;11.85;;;6.60;99.90;;;;;;4979858;28;20022;-78
2023/11/11 01:36:15;;;;;;;12.05;7.30;;;6.60;99.90;;;;;;4999660;28;20042;-78
2023/11/11 01:38:40;;;;;;;18.80;10.68;;;6.60;99.90;;;;;;4985929;28;20450;-77
2023/11/11 01:41:06;;;;;;;12.48;8.25;;;6.60;99.90;;;;;;5002508;28;20076;-78
2023/11/11 01:43:32;;;;;;;12.63;8.18;;;6.70;99.90;;;;;;4984036;28;20026;-76
2023/11/11 01:46:01;;;;;;;13.35;7.47;;;6.60;99.90;;;;;;4995271;28;20034;-77
2023/11/11 01:48:27;;;;;;;25.45;16.48;;;6.60;99.90;;;;;;4997302;28;20364;-78
2023/11/11 01:50:53;;;;;;;25.25;14.38;;;6.60;99.90;;;;;;4968602;28;20027;-79
2023/11/11 01:53:19;;;;;;;19.25;11.15;;;6.60;99.90;;;;;;4986550;28;20030;-78
2023/11/11 01:55:45;;;;;;;28.17;17.42;;;6.60;99.90;;;;;;4972737;28;20058;-78
2023/11/11 01:58:11;;;;;;;26.55;16.33;;;6.60;99.90;;;;;;4983434;28;20987;-77
2023/11/11 02:00:38;;;;;;;31.70;17.63;;;6.60;99.90;;;;;;4983667;28;20046;-77
2023/11/11 02:03:04;;;;;;;35.13;20.23;;;6.60;99.90;;;;;;4968868;28;20414;-77
2023/11/11 02:05:32;;;;;;;27.50;17.80;;;6.50;99.90;;;;;;4982466;28;20050;-78
2023/11/11 02:07:58;;;;;;;22.67;12.82;;;6.50;99.90;;;;;;4985149;28;20671;-78
2023/11/11 02:10:24;;;;;;;32.75;21.83;;;6.50;99.90;;;;;;5000957;28;20034;-77
2023/11/11 02:12:50;;;;;;;20.30;12.85;;;6.50;99.90;;;;;;5001200;28;20039;-78
2023/11/11 02:15:16;;;;;;;25.00;16.17;;;6.40;99.90;;;;;;4998867;28;20048;-77
2023/11/11 02:17:41;;;;;;;23.92;13.60;;;6.50;99.90;;;;;;4968437;28;20046;-78
2023/11/11 02:20:11;;;;;;;23.98;15.30;;;6.40;99.90;;;;;;4999942;28;20093;-77
2023/11/11 02:22:39;;;;;;;23.38;15.77;;;6.40;99.90;;;;;;4996289;28;20380;-78
2023/11/11 02:25:11;;;;;;;25.90;16.80;;;6.40;99.90;;;;;;4967827;28;20037;-78
2023/11/11 02:27:37;;;;;;;21.33;13.38;;;6.40;99.90;;;;;;4979354;28;20034;-77
2023/11/11 02:30:03;;;;;;;17.20;9.57;;;6.40;99.90;;;;;;5001831;28;20034;-79
2023/11/11 02:32:29;;;;;;;18.55;11.02;;;6.30;99.90;;;;;;4985076;28;20034;-78
2023/11/11 02:34:55;;;;;;;32.10;16.88;;;6.40;99.90;;;;;;5003897;28;20092;-78
2023/11/11 02:37:21;;;;;;;26.27;14.98;;;6.30;99.90;;;;;;4970545;28;20030;-78
2023/11/11 02:39:46;;;;;;;23.83;14.38;;;6.30;99.90;;;;;;5001451;28;20030;-78
2023/11/11 02:42:12;;;;;;;16.83;9.32;;;6.30;99.90;;;;;;4993637;28;20038;-77
2023/11/11 02:44:40;;;;;;;21.63;14.68;;;6.20;99.90;;;;;;4983191;28;20386;-78
2023/11/11 02:47:06;;;;;;;20.60;13.80;;;6.20;99.90;;;;;;4984602;28;20035;-79
2023/11/11 02:49:31;;;;;;;23.10;14.57;;;6.30;99.90;;;;;;4984905;28;20117;-78
2023/11/11 02:51:57;;;;;;;20.45;13.55;;;6.20;99.90;;;;;;5002011;28;20097;-78
2023/11/11 02:54:22;;;;;;;24.77;17.10;;;6.30;99.90;;;;;;4966658;28;20054;-78
2023/11/11 02:56:48;;;;;;;26.15;15.20;;;6.20;99.90;;;;;;4984808;28;20103;-77
2023/11/11 02:59:13;;;;;;;21.25;14.10;;;6.20;99.90;;;;;;5000305;28;20030;-77
2023/11/11 03:01:41;;;;;;;12.13;7.32;;;6.10;99.90;;;;;;4998848;28;20041;-78
2023/11/11 03:04:06;;;;;;;24.77;14.30;;;6.20;99.90;;;;;;4968208;28;20062;-79
2023/11/11 03:06:33;;;;;;;22.33;10.93;;;6.20;99.90;;;;;;4967774;28;20455;-78
2023/11/11 03:08:59;;;;;;;23.73;13.00;;;6.10;99.90;;;;;;4985907;28;20499;-78
2023/11/11 03:11:25;;;;;;;22.38;12.43;;;6.10;99.90;;;;;;4984468;28;20089;-78
2023/11/11 03:13:51;;;;;;;14.77;9.25;;;6.10;99.90;;;;;;4985945;28;20046;-77
2023/11/11 03:16:16;;;;;;;21.63;11.80;;;6.00;99.90;;;;;;4983662;28;20594;-78
2023/11/11 03:18:42;;;;;;;25.50;14.52;;;6.10;99.90;;;;;;4967709;28;20148;-78
2023/11/11 03:21:07;;;;;;;14.35;8.88;;;6.10;99.90;;;;;;4983017;28;20364;-78
2023/11/11 03:23:33;;;;;;;23.52;14.60;;;6.00;99.90;;;;;;4967275;28;20031;-78
2023/11/11 03:25:59;;;;;;;17.35;11.57;;;6.00;99.90;;;;;;5000355;28;20040;-78
2023/11/11 03:28:25;;;;;;;20.88;11.95;;;6.00;99.90;;;;;;4965957;28;20487;-78
2023/11/11 03:30:51;;;;;;;21.23;11.32;;;5.90;99.90;;;;;;4985601;28;20514;-78
2023/11/11 03:33:17;;;;;;;23.77;14.32;;;6.00;99.90;;;;;;4997157;28;20117;-78
2023/11/11 03:35:43;;;;;;;11.40;7.38;;;6.00;99.90;;;;;;4984156;28;20425;-79
2023/11/11 03:38:09;;;;;;;19.25;11.93;;;5.90;99.90;;;;;;4967044;28;20035;-78
2023/11/11 03:40:35;;;;;;;20.35;11.43;;;6.00;99.90;;;;;;4983339;28;20145;-78
2023/11/11 03:43:00;;;;;;;16.77;10.48;;;5.90;99.90;;;;;;4982286;28;20399;-77
2023/11/11 03:45:26;;;;;;;14.60;8.65;;;6.00;99.90;;;;;;4967408;28;20030;-77
2023/11/11 03:47:52;;;;;;;16.80;9.68;;;6.00;99.90;;;;;;4996722;28;20065;-78
2023/11/11 03:50:18;;;;;;;18.65;9.88;;;5.90;99.90;;;;;;4992060;28;20537;-78
2023/11/11 03:52:43;;;;;;;20.33;12.98;;;6.00;99.90;;;;;;4983935;28;20034;-78
2023/11/11 03:55:09;;;;;;;19.95;8.15;;;6.00;99.90;;;;;;4980799;28;20045;-77
2023/11/11 03:57:35;;;;;;;19.85;8.73;;;6.00;99.90;;;;;;4967037;28;20396;-78
2023/11/11 04:00:16;;;;;;;14.68;9.10;;;6.00;99.90;;;;;;5011550;28;20121;-77
2023/11/11 04:02:42;;;;;;;28.77;15.90;;;6.10;99.90;;;;;;4982883;28;20537;-79
2023/11/11 04:05:11;;;;;;;20.60;11.07;;;6.10;99.90;;;;;;4966666;28;20034;-79
2023/11/11 04:07:37;;;;;;;22.13;13.63;;;6.10;99.90;;;;;;5014406;28;20026;-79
2023/11/11 04:10:03;;;;;;;22.48;13.27;;;6.10;99.90;;;;;;4983289;28;20087;-79
2023/11/11 04:12:29;;;;;;;20.20;10.77;;;6.10;99.90;;;;;;4982810;28;20038;-78
2023/11/11 04:14:55;;;;;;;14.10;5.88;;;6.10;99.90;;;;;;4981614;28;20049;-78
2023/11/11 04:17:20;;;;;;;19.08;11.00;;;6.00;99.90;;;;;;4982215;28;20049;-78
2023/11/11 04:19:46;;;;;;;21.98;11.98;;;6.10;99.90;;;;;;4982193;28;20117;-79
2023/11/11 04:22:12;;;;;;;19.83;13.20;;;6.00;99.90;;;;;;4983226;28;20039;-78
2023/11/11 04:24:38;;;;;;;24.25;11.98;;;6.00;99.90;;;;;;4982516;28;20096;-78
2023/11/11 04:27:03;;;;;;;16.67;10.20;;;6.00;99.90;;;;;;4981806;28;20035;-79
2023/11/11 04:29:30;;;;;;;16.45;10.60;;;6.00;99.90;;;;;;4966949;28;20042;-77
2023/11/11 04:31:56;;;;;;;21.63;12.93;;;6.00;99.90;;;;;;4976550;28;20138;-78
2023/11/11 04:34:21;;;;;;;15.80;9.88;;;6.00;99.90;;;;;;4982558;28;23223;-78
2023/11/11 04:36:47;;;;;;;18.35;9.52;;;6.10;99.90;;;;;;4982142;28;20110;-78
2023/11/11 04:39:14;;;;;;;20.65;11.65;;;6.10;99.90;;;;;;4968959;28;20027;-78
2023/11/11 04:41:39;;;;;;;15.32;9.55;;;6.10;99.90;;;;;;4982850;28;20503;-78
2023/11/11 04:44:05;;;;;;;16.88;9.32;;;6.10;99.90;;;;;;4999893;28;20092;-78
2023/11/11 04:46:31;;;;;;;18.10;10.32;;;6.10;99.90;;;;;;4971712;28;20379;-77
2023/11/11 04:48:57;;;;;;;16.13;8.82;;;6.10;99.90;;;;;;4982366;28;20097;-78
2023/11/11 04:51:22;;;;;;;19.27;9.48;;;6.10;99.90;;;;;;4987416;28;20630;-78
2023/11/11 04:53:48;;;;;;;12.70;8.68;;;6.20;99.90;;;;;;4986360;28;20045;-78
2023/11/11 04:56:14;;;;;;;11.48;5.80;;;6.20;99.90;;;;;;4970286;28;20529;-77
2023/11/11 04:58:39;;;;;;;10.77;4.97;;;6.10;99.90;;;;;;4970508;28;20054;-79
2023/11/11 05:01:05;;;;;;;11.43;8.20;;;6.10;99.90;;;;;;4986322;28;20106;-78
2023/11/11 05:03:31;;;;;;;7.30;4.95;;;6.10;99.90;;;;;;4986112;28;20457;-78
2023/11/11 05:05:57;;;;;;;15.73;8.10;;;6.20;99.90;;;;;;5016797;28;20056;-78
2023/11/11 05:08:23;;;;;;;11.30;6.68;;;6.20;99.90;;;;;;4984141;28;20495;-78
2023/11/11 05:10:49;;;;;;;10.43;6.55;;;6.20;99.90;;;;;;4986848;28;20038;-79
2023/11/11 05:13:19;;;;;;;16.30;6.97;;;6.20;99.90;;;;;;4985892;28;20563;-78
2023/11/11 05:15:47;;;;;;;9.73;6.05;;;6.20;99.90;;;;;;4984715;28;20069;-78
2023/11/11 05:18:13;;;;;;;16.52;6.63;;;6.20;99.90;;;;;;4997446;28;20046;-77
2023/11/11 05:20:41;;;;;;;9.38;5.53;;;6.30;99.90;;;;;;4986259;28;20117;-78
2023/11/11 05:23:10;;;;;;;10.25;6.72;;;6.30;99.90;;;;;;4998018;28;20483;-78
2023/11/11 05:25:36;;;;;;;10.75;5.80;;;6.30;99.90;;;;;;4970473;28;20085;-77
2023/11/11 05:28:01;;;;;;;9.10;5.25;;;6.30;99.90;;;;;;4970032;28;20486;-78
2023/11/11 05:30:27;;;;;;;9.10;5.68;;;6.30;99.90;;;;;;4998302;28;20030;-78
2023/11/11 05:32:53;;;;;;;11.68;5.18;;;6.20;99.90;;;;;;5003398;28;20034;-77
2023/11/11 05:35:19;;;;;;;7.45;4.45;;;6.20;99.90;;;;;;4985546;28;20073;-77
2023/11/11 05:37:45;;;;;;;6.13;3.90;;;6.20;99.90;;;;;;4984711;28;20057;-77
2023/11/11 05:40:16;;;;;;;8.48;3.67;;;6.20;99.90;;;;;;4985630;28;20191;-77
2023/11/11 05:42:42;;;;;;;7.85;3.95;;;6.20;99.90;;;;;;4984653;28;20526;-78
2023/11/11 05:45:11;;;;;;;7.20;4.13;;;6.20;99.90;;;;;;4992851;28;20034;-78
2023/11/11 05:47:37;;;;;;;7.28;3.70;;;6.10;99.90;;;;;;4993782;28;20062;-77
2023/11/11 05:50:02;;;;;;;6.93;3.20;;;6.10;99.90;;;;;;4984659;28;20511;-78
2023/11/11 05:52:28;;;;;;;5.55;3.45;;;6.20;99.90;;;;;;4985040;28;20158;-79
2023/11/11 05:54:54;;;;;;;4.55;2.95;;;6.20;99.90;;;;;;4966504;28;20062;-78
2023/11/11 05:57:20;;;;;;;4.72;2.28;;;6.10;99.90;;;;;;4985465;28;20495;-77
2023/11/11 05:59:45;;;;;;;7.20;2.80;;;6.10;99.90;;;;;;4985830;28;20035;-77
2023/11/11 06:02:12;;;;;;;6.88;2.63;;;6.10;99.90;;;;;;4998669;28;20566;-77
2023/11/11 06:04:38;;;;;;;5.35;2.38;;;6.10;99.90;;;;;;4999245;28;20049;-78
2023/11/11 06:07:04;;;;;;;6.43;2.50;;;6.00;99.90;;;;;;4968670;28;20035;-78
2023/11/11 06:09:30;;;;;;;6.38;2.55;;;6.10;99.90;;;;;;4969256;28;20035;-77
2023/11/11 06:11:56;;;;;;;4.85;1.95;;;6.10;99.90;;;;;;4999192;28;20030;-78
2023/11/11 06:14:21;;;;;;;5.70;2.17;;;6.10;99.90;;;;;;4969768;28;20380;-78
2023/11/11 06:16:47;;;;;;;5.03;1.85;;;6.20;99.90;;;;;;4985883;28;20042;-78
2023/11/11 06:19:13;;;;;;;3.58;1.70;;;6.10;99.90;;;;;;4985234;28;20041;-78
2023/11/11 06:21:38;;;;;;;4.82;1.65;;;6.10;99.90;;;;;;4984222;28;20488;-78
2023/11/11 06:24:04;;;;;;;4.40;1.40;;;6.10;99.90;;;;;;4981891;28;20080;-78
2023/11/11 06:26:30;;;;;;;6.10;1.25;;;6.10;99.90;;;;;;4984502;28;20038;-78
2023/11/11 06:28:56;;;;;;;4.40;1.13;;;6.10;99.90;;;;;;4986258;28;20039;-77
2023/11/11 06:31:26;;;;;;;4.80;1.23;;;6.10;99.90;;;;;;4968257;28;20173;-77
2023/11/11 06:33:52;;;;;;;2.03;1.35;;;6.10;99.90;;;;;;4986131;28;20022;-76
2023/11/11 06:36:18;;;;;;;4.45;0.93;;;6.10;99.90;;;;;;4998103;28;20050;-78
2023/11/11 06:38:44;;;;;;;3.45;1.10;;;6.10;99.90;;;;;;4982691;28;20026;-78
2023/11/11 06:41:09;;;;;;;1.10;0.77;;;6.20;99.90;;;;;;4982500;28;20030;-77
2023/11/11 06:43:35;;;;;;;5.15;1.10;;;6.10;99.90;;;;;;4999237;28;20552;-78
2023/11/11 06:46:01;;;;;;;6.28;1.27;;;6.20;99.90;;;;;;4981729;28;20129;-77
2023/11/11 06:48:27;;;;;;;3.80;1.17;;;6.20;99.90;;;;;;4967933;28;20474;-77
2023/11/11 06:50:52;;;;;;;4.10;0.82;;;6.20;99.90;;;;;;4985168;28;20030;-77
2023/11/11 06:53:18;;;;;;;2.08;0.70;;;6.30;99.90;;;;;;5000127;28;20118;-78
2023/11/11 06:55:46;;;;;;;2.58;1.52;;;6.20;99.90;;;;;;4982614;28;20031;-78
2023/11/11 06:58:12;;;;;;;2.92;1.20;;;6.20;99.90;;;;;;5015785;28;20121;-78
2023/11/11 07:00:37;;;;;;;3.83;1.30;;;6.20;99.90;;;;;;4983273;28;20157;-77
2023/11/11 07:03:03;;;;;;;6.28;1.95;;;6.30;99.90;;;;;;4984498;28;20096;-79
2023/11/11 07:05:29;;;;;;;3.97;2.25;;;6.40;99.90;;;;;;4967492;28;20104;-78
2023/11/11 07:07:54;;;;;;;9.13;4.05;;;6.30;99.90;;;;;;4968859;28;20491;-78
2023/11/11 07:10:22;;;;;;;3.25;1.42;;;6.30;99.90;;;;;;4967624;28;20077;-78
2023/11/11 07:12:49;;;;;;;5.15;2.55;;;6.20;99.90;;;;;;4967075;28;20030;-78
2023/11/11 07:15:15;;;;;;;8.95;3.63;;;6.30;99.90;;;;;;4996518;28;20084;-77
2023/11/11 07:17:44;;;;;;;8.55;4.82;;;6.30;99.90;;;;;;4984353;28;20798;-77
2023/11/11 07:20:16;;;;;;;9.80;5.20;;;6.30;99.90;;;;;;4994699;28;20031;-78
2023/11/11 07:22:42;;;;;;;12.07;3.63;;;6.30;99.90;;;;;;4981544;28;20088;-78
2023/11/11 07:25:09;;;;;;;6.90;3.65;;;6.40;99.90;;;;;;4998693;28;20505;-79
2023/11/11 07:27:35;;;;;;;8.73;4.05;;;6.40;99.90;;;;;;4967722;28;20121;-78
2023/11/11 07:30:04;;;;;;;17.10;8.63;;;6.40;99.90;;;;;;4967901;28;20122;-78
2023/11/11 07:32:30;;;;;;;8.82;3.35;;;6.30;99.90;;;;;;4996121;28;20034;-78
2023/11/11 07:34:55;;;;;;;7.75;3.08;;;6.30;99.90;;;;;;4987351;28;20367;-78
2023/11/11 07:37:22;;;;;;;14.82;7.43;;;6.30;99.90;;;;;;4983415;28;20045;-78
2023/11/11 07:39:48;;;;;;;11.93;4.95;;;6.40;99.90;;;;;;4980877;28;20603;-78
2023/11/11 07:42:13;;;;;;;5.28;3.65;;;6.40;99.90;;;;;;5013797;28;20053;-77
2023/11/11 07:44:40;;;;;;;11.57;6.95;;;6.40;99.90;;;;;;4979905;28;20027;-79
2023/11/11 07:47:07;;;;;;;10.32;5.65;;;6.50;99.90;;;;;;4967084;28;20372;-78
2023/11/11 07:49:39;;;;;;;11.43;6.18;;;6.50;99.90;;;;;;4966755;28;20402;-78
2023/11/11 07:52:05;;;;;;;11.50;6.03;;;6.50;99.90;;;;;;4996681;28;20034;-79
2023/11/11 07:54:31;;;;;;;10.75;6.55;;;6.50;99.90;;;;;;4965793;28;20502;-77
2023/11/11 07:56:57;;;;;;;18.33;9.55;;;6.50;99.90;;;;;;4967348;28;20030;-80
2023/11/11 07:59:23;;;;;;;12.82;4.97;;;6.50;99.90;;;;;;4997998;28;20035;-80
2023/11/11 08:01:49;;;;;;;14.98;9.23;;;6.60;99.90;;;;;;4980820;28;20046;-80
2023/11/11 08:04:14;;;;;;;10.30;6.03;;;6.60;99.90;;;;;;4981301;28;20402;-78
2023/11/11 08:06:42;;;;;;;7.65;4.60;;;6.60;99.90;;;;;;4981871;28;20148;-78
2023/11/11 08:09:10;;;;;;;7.95;4.82;;;6.60;99.90;;;;;;4983081;28;20037;-78
2023/11/11 08:11:36;;;;;;;13.30;7.60;;;6.60;99.90;;;;;;4967257;28;20096;-78
2023/11/11 08:14:02;;;;;;;10.80;6.32;;;6.70;99.90;;;;;;4983048;28;20033;-79
2023/11/11 08:16:28;;;;;;;8.20;5.80;;;6.60;99.90;;;;;;4983551;28;20041;-78
2023/11/11 08:18:54;;;;;;;13.50;8.60;;;6.60;99.90;;;;;;4984003;28;20026;-78
2023/11/11 08:21:25;;;;;;;15.32;8.82;;;6.70;99.90;;;;;;4981421;28;20031;-78
2023/11/11 08:23:52;;;;;;;16.15;8.35;;;6.60;99.90;;;;;;4983040;28;20065;-78
2023/11/11 08:26:18;;;;;;;14.13;6.45;;;6.70;99.90;;;;;;4985721;28;20471;-79
2023/11/11 08:28:44;;;;;;;8.23;4.88;;;6.80;99.90;;;;;;4996655;28;20026;-79
2023/11/11 08:31:09;;;;;;;10.27;5.13;;;6.80;99.90;;;;;;4982098;28;20508;-78
2023/11/11 08:33:35;;;;;;;12.82;6.43;;;6.80;99.90;;;;;;4967093;28;20038;-79
2023/11/11 08:36:02;;;;;;;16.38;6.70;;;6.80;99.90;;;;;;4994826;28;20605;-78
2023/11/11 08:38:28;;;;;;;11.63;7.13;;;6.80;99.90;;;;;;4965554;28;20041;-79
2023/11/11 08:40:54;;;;;;;13.02;6.45;;;6.90;99.90;;;;;;4968371;28;20394;-78
2023/11/11 08:43:20;;;;;;;19.05;9.95;;;6.90;99.90;;;;;;4980623;28;20038;-78
2023/11/11 08:45:46;;;;;;;11.45;5.78;;;6.90;99.90;;;;;;4983242;28;20049;-79
2023/11/11 08:48:13;;;;;;;17.17;8.07;;;7.00;99.90;;;;;;4965930;28;20039;-78
2023/11/11 08:50:39;;;;;;;7.38;3.78;;;7.00;99.90;;;;;;4994029;28;20037;-78
2023/11/11 08:53:05;;;;;;;8.48;3.35;;;7.10;99.90;;;;;;4995710;28;20510;-78
2023/11/11 08:55:31;;;;;;;17.83;7.38;;;7.10;99.90;;;;;;4981249;28;20049;-78
2023/11/11 08:57:56;;;;;;;10.10;5.65;;;7.10;99.90;;;;;;4995972;28;20398;-78
2023/11/11 09:00:22;;;;;;;15.63;9.15;;;7.10;99.90;;;;;;4980355;28;20038;-79
2023/11/11 09:02:49;;;;;;;17.20;6.70;;;7.10;99.90;;;;;;4965872;28;20403;-78
2023/11/11 09:05:14;;;;;;;8.90;5.18;;;7.10;99.90;;;;;;4982543;28;20117;-78
2023/11/11 09:07:40;;;;;;;10.68;5.85;;;7.10;99.90;;;;;;4966837;28;20359;-79
2023/11/11 09:10:06;;;;;;;10.95;5.25;;;7.20;99.90;;;;;;4994314;28;20030;-78
2023/11/11 09:12:32;;;;;;;13.60;8.35;;;7.20;99.90;;;;;;4981952;28;20107;-78
2023/11/11 09:14:58;;;;;;;12.95;7.45;;;7.20;99.90;;;;;;4981923;28;20042;-79
2023/11/11 09:17:24;;;;;;;8.88;4.72;;;7.20;99.90;;;;;;4980740;28;20035;-77
2023/11/11 09:19:52;;;;;;;10.45;6.35;;;7.20;99.90;;;;;;4983856;28;20086;-78
2023/11/11 09:22:18;;;;;;;19.05;10.00;;;7.30;99.90;;;;;;4967274;28;20034;-78
2023/11/11 09:24:44;;;;;;;7.93;3.80;;;7.30;99.90;;;;;;4965801;28;20045;-79
2023/11/11 09:27:10;;;;;;;5.00;3.63;;;7.40;99.90;;;;;;4995821;28;20035;-78
2023/11/11 09:29:35;;;;;;;7.35;5.35;;;7.40;99.90;;;;;;4969550;28;20026;-79
2023/11/11 09:32:01;;;;;;;15.48;7.00;;;7.40;99.90;;;;;;4985909;28;20063;-79
2023/11/11 09:34:26;;;;;;;12.57;6.78;;;7.40;99.90;;;;;;4999481;28;20046;-78
2023/11/11 09:36:52;;;;;;;11.82;8.32;;;7.50;99.90;;;;;;4986096;28;20034;-78
2023/11/11 09:39:19;;;;;;;16.02;9.93;;;7.50;99.90;;;;;;4970237;28;20038;-80
2023/11/11 09:41:45;;;;;;;14.40;7.68;;;7.50;99.90;;;;;;4984681;28;20030;-78
2023/11/11 09:44:10;;;;;;;7.63;4.38;;;7.50;99.90;;;;;;4985134;28;20767;-79
2023/11/11 09:46:53;;;;;;;10.48;5.22;;;7.60;99.90;;;;;;4966882;28;20698;-78
2023/11/11 09:49:19;;;;;;;11.93;7.50;;;7.60;99.90;;;;;;4968759;28;20572;-79
2023/11/11 09:51:45;;;;;;;15.40;9.90;;;7.70;99.90;;;;;;4968752;28;20034;-79
2023/11/11 09:54:10;;;;;;;17.20;7.88;;;7.70;99.90;;;;;;4983628;28;20073;-79
2023/11/11 09:56:36;;;;;;;16.20;6.60;;;7.80;99.90;;;;;;4968617;28;20113;-80
2023/11/11 09:59:01;;;;;;;14.52;8.05;;;7.80;99.90;;;;;;4984370;28;20092;-79
2023/11/11 10:01:27;;;;;;;12.73;6.68;;;7.90;99.90;;;;;;4983682;28;20089;-79
2023/11/11 10:03:53;;;;;;;9.63;5.20;;;7.90;99.90;;;;;;4970064;28;20100;-79
2023/11/11 10:06:19;;;;;;;16.77;7.65;;;8.00;99.90;;;;;;4970384;28;20499;-79
2023/11/11 10:08:45;;;;;;;14.88;8.15;;;7.90;99.90;;;;;;4969929;28;20052;-78
2023/11/11 10:11:12;;;;;;;13.43;6.50;;;7.90;99.90;;;;;;4997453;28;20042;-79
2023/11/11 10:13:38;;;;;;;20.55;3.35;;;7.90;99.90;;;;;;4984683;28;20483;-79
2023/11/11 10:16:21;;;;;;;13.48;6.75;;;7.90;99.90;;;;;;4985387;28;20049;-78
2023/11/11 10:18:49;;;;;;;16.30;6.97;;;7.90;99.90;;;;;;4971975;28;20114;-78
2023/11/11 10:21:16;;;;;;;14.18;5.15;;;7.80;99.90;;;;;;4999089;28;20080;-78
2023/11/11 10:23:45;;;;;;;17.88;8.75;;;7.90;99.90;;;;;;4985061;28;20042;-79
2023/11/11 10:26:11;;;;;;;14.85;6.50;;;7.90;99.90;;;;;;4982808;28;20133;-79
2023/11/11 10:28:36;;;;;;;5.47;4.25;;;7.90;99.90;;;;;;4966930;28;20133;-79
2023/11/11 10:31:08;;;;;;;20.63;9.98;;;7.90;99.90;;;;;;4986134;28;20034;-78
2023/11/11 10:33:34;;;;;;;17.23;7.47;;;8.00;99.90;;;;;;4983764;28;20769;-78
2023/11/11 10:36:04;;;;;;;10.20;5.93;;;8.00;99.90;;;;;;4996269;28;20038;-78
2023/11/11 10:38:30;;;;;;;17.42;8.05;;;8.10;99.90;;;;;;4995833;28;20034;-79
2023/11/11 10:40:56;;;;;;;10.48;6.22;;;8.20;99.90;;;;;;4968970;28;20096;-79
2023/11/11 10:43:25;;;;;;;13.10;7.45;;;8.20;99.90;;;;;;4969433;28;20054;-79
2023/11/11 10:45:50;;;;;;;12.80;6.22;;;8.20;99.90;;;;;;4981221;28;20034;-78
2023/11/11 10:48:17;;;;;;;14.65;7.43;;;8.20;99.90;;;;;;5012143;28;20125;-78
2023/11/11 10:50:44;;;;;;;14.18;6.45;;;8.20;99.90;;;;;;4980722;28;20035;-79
2023/11/11 10:53:09;;;;;;;17.65;8.35;;;8.30;99.90;;;;;;4995532;28;20084;-79
2023/11/11 10:55:35;;;;;;;11.15;6.80;;;8.30;99.90;;;;;;4977711;28;20050;-79
2023/11/11 10:58:00;;;;;;;15.23;5.72;;;8.30;99.90;;;;;;4965293;28;20035;-79
2023/11/11 11:00:26;;;;;;;11.57;4.40;;;8.20;99.90;;;;;;4983201;28;20093;-78
2023/11/11 11:02:54;;;;;;;9.02;5.45;;;8.20;99.90;;;;;;4967793;28;20126;-78
2023/11/11 11:05:30;;;;;;;13.50;8.43;;;8.10;99.90;;;;;;4982403;28;20038;-79
2023/11/11 11:08:33;;;;;;;18.20;8.25;;;8.10;99.90;;;;;;4983040;28;20487;-78
2023/11/11 11:11:16;;;;;;;15.45;7.93;;;8.10;99.90;;;;;;4980948;28;20035;-79
2023/11/11 11:13:43;;;;;;;8.48;4.57;;;8.10;99.90;;;;;;4982669;28;20116;-78
2023/11/11 11:16:28;;;;;;;8.10;3.67;;;8.00;99.90;;;;;;4992873;28;20065;-79
2023/11/11 11:18:57;;;;;;;18.02;6.57;;;8.10;99.90;;;;;;4998409;28;20038;-79
2023/11/11 11:21:23;;;;;;;10.52;5.90;;;8.00;99.90;;;;;;4983325;28;20085;-78
2023/11/11 11:23:51;;;;;;;4.13;3.00;;;8.10;99.90;;;;;;4986558;28;20046;-79
2023/11/11 11:26:29;;;;;;;14.63;7.60;;;8.20;99.90;;;;;;4993159;28;20099;-78
2023/11/11 11:29:14;;;;;;;16.85;6.53;;;8.40;99.90;;;;;;4994636;28;20034;-78
2023/11/11 11:32:08;;;;;;;9.93;4.43;;;8.50;99.90;;;;;;5011146;28;20030;-78
2023/11/11 11:34:34;;;;;;;9.60;6.30;;;8.80;99.90;;;;;;4966240;28;20597;-79
2023/11/11 11:37:00;;;;;;;16.73;4.55;;;9.00;99.90;;;;;;4963025;28;20033;-79
2023/11/11 11:39:28;;;;;;;7.93;4.65;;;9.10;99.90;;;;;;4967447;28;20034;-79
2023/11/11 11:42:27;;;;;;;10.93;5.43;;;9.20;99.90;;;;;;4982752;28;20035;-77
2023/11/11 11:44:57;;;;;;;15.98;5.85;;;9.30;99.90;;;;;;4955590;28;20113;-79
2023/11/11 11:47:24;;;;;;;8.90;3.45;;;9.40;99.90;;;;;;4981444;28;20368;-79
2023/11/11 11:49:49;;;;;;;9.77;4.72;;;9.50;99.90;;;;;;5012535;28;20428;-78
2023/11/11 11:52:17;;;;;;;14.07;5.93;;;9.60;99.90;;;;;;4984206;28;20030;-79
2023/11/11 11:54:43;;;;;;;9.27;5.13;;;9.70;99.90;;;;;;4981481;28;20038;-78
2023/11/11 11:57:09;;;;;;;13.05;6.43;;;9.70;99.90;;;;;;4980833;28;20045;-79
2023/11/11 11:59:34;;;;;;;11.02;5.50;;;9.80;99.90;;;;;;4965851;28;20027;-78
2023/11/11 12:02:00;;;;;;;6.95;4.13;;;9.90;99.90;;;;;;4966585;28;20038;-78
2023/11/11 12:04:27;;;;;;;10.35;5.85;;;10.10;99.90;;;;;;4983418;28;20448;-79
2023/11/11 12:06:53;;;;;;;9.82;5.85;;;10.10;99.90;;;;;;4996697;28;20034;-77
2023/11/11 12:09:19;;;;;;;13.52;5.30;;;9.90;99.90;;;;;;4983019;28;20042;-79
2023/11/11 12:11:45;;;;;;;8.38;4.45;;;10.00;99.90;;;;;;4980242;28;20031;-79
2023/11/11 12:14:13;;;;;;;9.50;4.75;;;10.00;99.90;;;;;;4977512;28;20065;-79
2023/11/11 12:16:43;;;;;;;9.27;4.78;;;10.00;99.90;;;;;;4965834;28;20038;-79
2023/11/11 12:19:13;;;;;;;5.82;2.47;;;10.20;99.90;;;;;;4996541;28;20022;-79
2023/11/11 12:21:45;;;;;;;9.20;3.38;;;10.30;99.90;;;;;;4965671;28;20022;-79
2023/11/11 12:24:17;;;;;;;8.38;3.63;;;10.30;99.90;;;;;;4982703;28;20092;-79
2023/11/11 12:26:43;;;;;;;8.25;2.63;;;10.20;99.90;;;;;;4965880;28;20034;-78
2023/11/11 12:29:10;;;;;;;11.43;2.35;;;10.30;99.90;;;;;;4999851;28;20035;-78
2023/11/11 12:31:55;;;;;;;5.22;2.78;;;10.30;99.90;;;;;;4965996;28;20042;-79
2023/11/11 12:34:27;;;;;;;7.03;3.63;;;10.40;99.90;;;;;;4966546;28;20580;-79
2023/11/11 12:36:53;;;;;;;10.40;3.35;;;10.20;99.90;;;;;;4981515;28;20650;-77
2023/11/11 12:39:22;;;;;;;7.07;3.28;;;10.10;99.90;;;;;;4998945;28;20062;-79
2023/11/11 12:41:51;;;;;;;4.75;2.80;;;10.20;99.90;;;;;;4997472;28;20023;-78
2023/11/11 12:44:19;;;;;;;8.07;2.75;;;10.20;99.90;;;;;;4981028;28;20093;-78
2023/11/11 12:46:45;;;;;;;4.82;3.10;;;10.10;99.90;;;;;;4968013;28;20073;-77